Time;durP1;ratioP1;P1;durP2;ratioP2;P2;SDS_P1;SDS_P2;PMS_P1;PMS_P2;Temp;Humidity;BMP_temperature;BMP_pressure;BME280_temperature;BME280_humidity;BME280_pressure;Samples;Min_cycle;Max_cycle;Signal;HPM_P1;HPM_P2
2022/12/04 00:00:13;;;;;;;478.20;122.93;;;5.60;99.90;;;;;;5136283;27;20019;-63
2022/12/04 00:02:40;;;;;;;385.67;111.57;;;5.50;99.90;;;;;;5136311;27;20081;-63
2022/12/04 00:05:07;;;;;;;439.48;110.97;;;5.60;99.90;;;;;;5136178;27;20447;-63
2022/12/04 00:07:33;;;;;;;491.25;115.65;;;5.80;99.90;;;;;;5136616;27;20023;-63
2022/12/04 00:10:00;;;;;;;803.38;140.07;;;5.70;99.90;;;;;;5136098;27;20038;-63
2022/12/04 00:12:26;;;;;;;426.10;111.75;;;5.60;99.90;;;;;;5136058;27;20492;-63
2022/12/04 00:14:52;;;;;;;524.78;118.55;;;5.60;99.90;;;;;;5135917;27;20023;-63
2022/12/04 00:17:18;;;;;;;570.50;127.35;;;5.70;99.90;;;;;;5135981;27;20060;-63
2022/12/04 00:19:44;;;;;;;639.97;132.43;;;5.60;99.90;;;;;;5135906;27;20059;-63
2022/12/04 00:22:10;;;;;;;401.90;109.80;;;5.50;99.90;;;;;;5135977;27;20058;-63
2022/12/04 00:24:35;;;;;;;403.58;105.05;;;5.60;99.90;;;;;;5136064;27;20023;-63
2022/12/04 00:27:02;;;;;;;465.77;117.75;;;5.70;99.90;;;;;;5135882;27;20026;-63
2022/12/04 00:29:28;;;;;;;730.38;136.15;;;5.70;99.90;;;;;;5135744;27;20110;-63
2022/12/04 00:31:54;;;;;;;463.02;123.88;;;5.60;99.90;;;;;;5135734;27;20023;-63
2022/12/04 00:34:21;;;;;;;463.30;120.25;;;5.60;99.90;;;;;;5135697;27;20388;-63
2022/12/04 00:36:47;;;;;;;672.92;141.75;;;5.60;99.90;;;;;;5135859;27;20069;-64
2022/12/04 00:39:13;;;;;;;428.10;111.85;;;5.50;99.90;;;;;;5135681;27;20020;-63
2022/12/04 00:41:39;;;;;;;406.52;109.60;;;5.50;99.90;;;;;;5135650;27;20031;-63
2022/12/04 00:44:05;;;;;;;462.88;115.80;;;5.60;99.90;;;;;;5135694;27;20058;-63
2022/12/04 00:46:31;;;;;;;505.42;120.65;;;5.60;99.90;;;;;;5135672;27;20438;-63
2022/12/04 00:49:00;;;;;;;505.38;115.10;;;5.60;99.90;;;;;;5135441;28;20636;-63
2022/12/04 00:51:27;;;;;;;391.52;104.57;;;5.60;99.90;;;;;;5135640;28;20031;-63
2022/12/04 00:53:53;;;;;;;536.75;121.80;;;5.60;99.90;;;;;;5135536;28;20102;-63
2022/12/04 00:56:23;;;;;;;428.13;112.68;;;5.60;99.90;;;;;;5135453;28;20030;-63
2022/12/04 00:58:52;;;;;;;432.63;113.70;;;5.70;99.90;;;;;;5135520;28;20045;-63
2022/12/04 01:01:19;;;;;;;411.90;109.18;;;5.60;99.90;;;;;;5135224;28;20019;-63
2022/12/04 01:03:46;;;;;;;377.42;103.82;;;5.50;99.90;;;;;;5135338;28;20077;-64
2022/12/04 01:06:18;;;;;;;449.40;113.82;;;5.50;99.90;;;;;;5135293;28;20038;-63
2022/12/04 01:08:44;;;;;;;462.92;114.35;;;5.60;99.90;;;;;;5135213;28;20110;-63
2022/12/04 01:11:10;;;;;;;479.23;112.10;;;5.60;99.90;;;;;;5135248;28;20035;-63
2022/12/04 01:13:36;;;;;;;599.15;124.93;;;5.50;99.90;;;;;;5135265;28;20047;-63
2022/12/04 01:16:02;;;;;;;632.83;129.98;;;5.50;99.90;;;;;;5135085;28;20122;-63
2022/12/04 01:18:28;;;;;;;646.45;126.78;;;5.40;99.90;;;;;;5135184;28;20023;-63
2022/12/04 01:20:54;;;;;;;525.28;114.63;;;5.30;99.90;;;;;;5135351;28;20147;-64
2022/12/04 01:23:20;;;;;;;467.77;112.15;;;5.20;99.90;;;;;;5135114;28;20016;-63
2022/12/04 01:25:51;;;;;;;361.13;106.57;;;5.30;99.90;;;;;;5135346;28;20023;-63
2022/12/04 01:28:17;;;;;;;635.38;135.20;;;5.30;99.90;;;;;;5135242;28;20027;-63
2022/12/04 01:30:43;;;;;;;411.27;108.80;;;5.50;99.90;;;;;;5135065;28;20023;-63
2022/12/04 01:33:09;;;;;;;367.30;104.45;;;5.50;99.90;;;;;;5116784;28;20481;-63
2022/12/04 01:35:35;;;;;;;426.95;112.70;;;5.50;99.90;;;;;;5135216;28;20481;-63
2022/12/04 01:38:00;;;;;;;374.33;105.03;;;5.50;99.90;;;;;;5135063;28;20020;-63
2022/12/04 01:40:26;;;;;;;483.67;120.75;;;5.50;99.90;;;;;;5135066;28;20029;-63
2022/12/04 01:42:52;;;;;;;439.38;109.88;;;5.60;99.90;;;;;;5135134;28;20080;-64
2022/12/04 01:45:30;;;;;;;418.88;111.05;;;5.60;99.90;;;;;;5134999;28;20030;-63
2022/12/04 01:48:15;;;;;;;393.73;105.97;;;5.50;99.90;;;;;;5135025;28;20027;-62
2022/12/04 01:50:42;;;;;;;521.97;121.20;;;5.60;99.90;;;;;;5134944;28;20024;-63
2022/12/04 01:53:08;;;;;;;379.13;106.75;;;5.60;99.90;;;;;;5135918;27;20027;-63
2022/12/04 01:55:34;;;;;;;487.60;118.95;;;5.50;99.90;;;;;;5138784;27;20020;-63
2022/12/04 01:58:01;;;;;;;377.05;105.28;;;5.40;99.90;;;;;;5138676;27;20019;-63
2022/12/04 02:00:27;;;;;;;375.77;106.03;;;5.50;99.90;;;;;;5138669;27;20063;-63
2022/12/04 02:02:54;;;;;;;494.88;118.25;;;5.60;99.90;;;;;;5138807;27;20023;-64
2022/12/04 02:05:21;;;;;;;324.58;101.70;;;5.50;99.90;;;;;;5138459;27;20026;-63
2022/12/04 02:07:50;;;;;;;336.23;99.93;;;5.50;99.90;;;;;;5138685;27;20461;-63
2022/12/04 02:10:26;;;;;;;694.97;136.60;;;5.50;99.90;;;;;;5138369;27;20020;-63
2022/12/04 02:12:51;;;;;;;358.52;105.60;;;5.40;99.90;;;;;;5138522;27;20058;-63
2022/12/04 02:15:37;;;;;;;391.75;109.43;;;5.40;99.90;;;;;;5120030;27;20078;-63
2022/12/04 02:18:30;;;;;;;293.05;94.07;;;5.50;99.90;;;;;;5138508;27;20020;-63
2022/12/04 02:21:19;;;;;;;332.48;101.63;;;5.60;99.90;;;;;;5138317;27;20039;-63
2022/12/04 02:24:10;;;;;;;391.40;113.78;;;5.60;99.90;;;;;;5138314;27;20107;-63
2022/12/04 02:26:57;;;;;;;281.15;95.55;;;5.50;99.90;;;;;;5138206;27;20024;-63
2022/12/04 02:29:44;;;;;;;316.50;102.90;;;5.50;99.90;;;;;;5138169;27;20047;-63
2022/12/04 02:32:24;;;;;;;308.85;102.13;;;5.50;99.90;;;;;;5138122;27;20494;-64
2022/12/04 02:35:28;;;;;;;249.73;91.65;;;5.50;99.90;;;;;;5138030;27;20027;-63
2022/12/04 02:38:22;;;;;;;321.20;103.47;;;5.40;99.90;;;;;;5137608;27;20043;-63
2022/12/04 02:41:05;;;;;;;261.00;95.50;;;5.40;99.90;;;;;;5137873;27;20031;-63
2022/12/04 02:44:01;;;;;;;230.15;86.30;;;5.40;99.90;;;;;;5137860;27;20055;-63
2022/12/04 02:46:35;;;;;;;261.77;91.68;;;5.40;99.90;;;;;;5136323;27;20063;-63
2022/12/04 02:49:03;;;;;;;237.85;88.47;;;5.50;99.90;;;;;;5137673;27;20062;-63
2022/12/04 02:51:34;;;;;;;244.93;90.03;;;5.30;99.90;;;;;;5137812;27;20084;-63
2022/12/04 02:54:22;;;;;;;344.70;108.50;;;5.40;99.90;;;;;;5137575;27;20027;-63
2022/12/04 02:56:49;;;;;;;275.13;94.15;;;5.30;99.90;;;;;;5137915;27;20027;-63
2022/12/04 02:59:23;;;;;;;260.20;91.75;;;5.20;99.90;;;;;;5119467;27;20023;-63
2022/12/04 03:01:53;;;;;;;231.93;87.40;;;5.10;99.90;;;;;;5119083;27;20114;-63
2022/12/04 03:04:23;;;;;;;219.63;87.03;;;5.30;99.90;;;;;;5136578;27;20027;-63
2022/12/04 03:06:55;;;;;;;211.77;82.60;;;5.30;99.90;;;;;;5137280;27;20425;-63
2022/12/04 03:09:45;;;;;;;206.95;78.25;;;5.40;99.90;;;;;;5137180;27;20034;-63
2022/12/04 03:12:19;;;;;;;228.95;86.30;;;5.30;99.90;;;;;;5125078;27;20078;-63
2022/12/04 03:14:53;;;;;;;241.13;84.75;;;5.40;99.90;;;;;;5137186;27;20102;-63
2022/12/04 03:17:29;;;;;;;241.38;87.03;;;5.30;99.90;;;;;;5137164;27;20460;-63
2022/12/04 03:20:00;;;;;;;264.30;91.75;;;5.30;99.90;;;;;;5118693;27;20058;-63
2022/12/04 03:22:28;;;;;;;231.68;84.10;;;5.30;99.90;;;;;;5137034;27;20079;-62
2022/12/04 03:24:56;;;;;;;236.05;84.50;;;5.20;99.90;;;;;;5137025;27;20027;-62
2022/12/04 03:27:50;;;;;;;223.50;81.72;;;5.20;99.90;;;;;;5136997;27;20030;-63
2022/12/04 03:30:21;;;;;;;254.77;86.00;;;5.10;99.90;;;;;;5136964;27;20030;-63
2022/12/04 03:33:01;;;;;;;217.60;80.82;;;5.10;99.90;;;;;;5136893;27;20456;-63
2022/12/04 03:35:40;;;;;;;236.65;84.35;;;5.10;99.90;;;;;;5136758;27;20114;-63
2022/12/04 03:38:17;;;;;;;211.18;78.47;;;4.90;99.90;;;;;;5136850;27;20301;-63
2022/12/04 03:41:04;;;;;;;238.20;84.50;;;4.90;99.90;;;;;;5136709;27;20505;-63
2022/12/04 03:43:33;;;;;;;236.55;83.32;;;5.00;99.90;;;;;;5136750;27;20031;-63
2022/12/04 03:46:18;;;;;;;231.68;81.10;;;4.90;99.90;;;;;;5136444;27;20021;-63
2022/12/04 03:48:49;;;;;;;287.98;94.40;;;4.90;99.90;;;;;;5136628;27;20039;-63
2022/12/04 03:51:31;;;;;;;208.05;80.72;;;4.90;99.90;;;;;;5136521;27;20076;-63
2022/12/04 03:54:04;;;;;;;212.75;79.35;;;4.90;99.90;;;;;;5136511;27;20031;-63
2022/12/04 03:56:38;;;;;;;203.52;76.55;;;5.00;99.90;;;;;;5136310;27;20031;-63
2022/12/04 03:59:21;;;;;;;167.82;71.38;;;5.00;99.90;;;;;;5136335;27;20028;-63
2022/12/04 04:01:49;;;;;;;163.60;68.00;;;5.00;99.90;;;;;;5136289;27;20038;-62
2022/12/04 04:04:21;;;;;;;149.88;65.70;;;5.10;99.90;;;;;;5136302;27;20025;-64
2022/12/04 04:06:57;;;;;;;182.80;70.38;;;5.10;99.90;;;;;;5117682;27;20072;-62
2022/12/04 04:09:25;;;;;;;164.93;66.53;;;4.90;99.90;;;;;;5136188;27;20027;-63
2022/12/04 04:11:57;;;;;;;153.82;66.75;;;4.80;99.90;;;;;;5136274;27;20023;-63
2022/12/04 04:26:22;;;;;;;150.38;66.45;;;4.70;99.90;;;;;;5135955;27;20022;-63
2022/12/04 04:28:48;;;;;;;203.27;73.93;;;4.80;99.90;;;;;;5135923;27;20020;-63
2022/12/04 04:31:50;;;;;;;182.90;71.10;;;4.90;99.90;;;;;;5135901;27;20411;-63
2022/12/04 04:34:16;;;;;;;223.52;81.18;;;4.80;99.90;;;;;;5032267;28;20033;-63
2022/12/04 04:36:52;;;;;;;187.70;76.75;;;4.80;99.90;;;;;;5114431;27;20050;-62
2022/12/04 04:39:41;;;;;;;247.38;83.13;;;4.90;99.90;;;;;;5135671;27;20099;-62
2022/12/04 04:42:42;;;;;;;164.85;67.07;;;4.80;99.90;;;;;;5121863;27;20031;-63
2022/12/04 04:45:21;;;;;;;167.10;71.55;;;4.90;99.90;;;;;;5096200;27;20035;-63
2022/12/04 04:48:08;;;;;;;188.73;75.55;;;4.90;99.90;;;;;;5135598;27;20051;-63
2022/12/04 04:50:35;;;;;;;170.02;68.60;;;4.90;99.90;;;;;;5135590;27;20031;-63
2022/12/04 04:53:07;;;;;;;172.52;70.18;;;4.80;99.90;;;;;;5135714;27;20079;-63
2022/12/04 04:55:34;;;;;;;158.77;64.97;;;4.80;99.90;;;;;;5135533;28;20031;-63
2022/12/04 04:58:13;;;;;;;183.68;68.72;;;4.90;99.90;;;;;;5135493;28;20113;-63
2022/12/04 05:00:40;;;;;;;165.57;67.18;;;4.80;99.90;;;;;;5135564;28;20027;-62
2022/12/04 05:03:06;;;;;;;179.10;72.35;;;4.80;99.90;;;;;;5135359;28;20358;-63
2022/12/04 05:05:32;;;;;;;173.48;66.63;;;4.70;99.90;;;;;;5135598;28;20038;-63
2022/12/04 05:07:57;;;;;;;163.18;65.63;;;4.70;99.90;;;;;;5135465;28;20020;-63
2022/12/04 05:10:23;;;;;;;185.07;70.15;;;4.60;99.90;;;;;;5135354;28;20023;-62
2022/12/04 05:12:49;;;;;;;148.55;64.10;;;4.50;99.90;;;;;;5135294;28;20066;-63
2022/12/04 05:15:15;;;;;;;163.70;64.40;;;4.50;99.90;;;;;;5135300;28;20039;-63
2022/12/04 05:17:41;;;;;;;137.50;61.33;;;4.40;99.90;;;;;;5135043;28;20034;-63
2022/12/04 05:20:09;;;;;;;144.55;63.05;;;4.50;99.90;;;;;;5135238;28;20054;-63
2022/12/04 05:22:36;;;;;;;143.38;62.03;;;4.60;99.90;;;;;;5135333;28;20109;-63
2022/12/04 05:25:02;;;;;;;156.60;66.15;;;4.70;99.90;;;;;;5135279;28;20023;-63
2022/12/04 05:27:29;;;;;;;147.75;63.83;;;4.70;99.90;;;;;;5135258;27;20019;-63
2022/12/04 05:29:57;;;;;;;167.93;64.55;;;4.60;99.90;;;;;;5139312;27;20038;-63
2022/12/04 05:32:25;;;;;;;166.88;68.30;;;4.40;99.90;;;;;;5139060;27;20496;-63
2022/12/04 05:34:52;;;;;;;167.02;66.20;;;4.50;99.90;;;;;;5139324;27;20038;-63
2022/12/04 05:37:19;;;;;;;161.77;65.18;;;4.40;99.90;;;;;;5139212;27;20023;-63
2022/12/04 05:39:45;;;;;;;161.18;62.35;;;4.40;99.90;;;;;;5139032;27;20035;-63
2022/12/04 05:42:12;;;;;;;164.07;63.38;;;4.40;99.90;;;;;;5139119;27;20046;-63
2022/12/04 05:44:38;;;;;;;172.23;64.28;;;4.50;99.90;;;;;;5138900;27;20627;-63
2022/12/04 05:47:04;;;;;;;170.75;66.90;;;4.50;99.90;;;;;;5139001;27;20061;-63
2022/12/04 05:49:32;;;;;;;155.50;58.63;;;4.50;99.90;;;;;;5138976;27;20031;-63
2022/12/04 05:51:58;;;;;;;152.35;61.92;;;4.50;99.90;;;;;;5138926;27;20037;-62
2022/12/04 05:54:24;;;;;;;152.15;59.33;;;4.40;99.90;;;;;;5138748;27;20031;-63
2022/12/04 05:56:51;;;;;;;157.10;65.72;;;4.50;99.90;;;;;;5138806;27;20023;-62
2022/12/04 05:59:17;;;;;;;162.20;64.35;;;4.40;99.90;;;;;;5138595;27;20097;-62
2022/12/04 06:01:44;;;;;;;158.23;66.30;;;4.50;99.90;;;;;;5138756;27;20015;-63
2022/12/04 06:04:11;;;;;;;156.00;66.68;;;4.50;99.90;;;;;;5138697;27;20480;-62
2022/12/04 06:06:37;;;;;;;152.43;64.68;;;4.60;99.90;;;;;;5138588;27;20031;-62
2022/12/04 06:09:05;;;;;;;146.60;63.38;;;4.60;99.90;;;;;;5138437;27;20052;-63
2022/12/04 06:11:33;;;;;;;148.40;62.75;;;4.50;99.90;;;;;;5138509;27;20031;-63
2022/12/04 06:14:02;;;;;;;145.23;62.00;;;4.60;99.90;;;;;;5138675;27;20626;-63
2022/12/04 06:16:31;;;;;;;137.82;62.95;;;4.70;99.90;;;;;;5138180;27;20076;-63
2022/12/04 06:18:59;;;;;;;156.95;64.80;;;4.60;99.90;;;;;;5138337;27;20114;-63
2022/12/04 06:21:27;;;;;;;142.57;63.55;;;4.60;99.90;;;;;;5138231;27;20487;-63
2022/12/04 06:23:53;;;;;;;141.27;61.88;;;4.50;99.90;;;;;;5138663;27;20023;-62
2022/12/04 06:26:20;;;;;;;181.57;71.10;;;4.70;99.90;;;;;;5138237;27;20020;-63
2022/12/04 06:28:46;;;;;;;153.70;67.47;;;4.60;99.90;;;;;;5138314;27;20023;-62
2022/12/04 06:31:14;;;;;;;163.73;69.53;;;4.60;99.90;;;;;;5138115;27;20052;-63
2022/12/04 06:33:40;;;;;;;159.32;68.95;;;4.60;99.90;;;;;;5138129;27;20031;-62
2022/12/04 06:36:10;;;;;;;150.75;63.78;;;4.60;99.90;;;;;;5138214;27;20458;-62
2022/12/04 06:38:36;;;;;;;146.13;61.13;;;4.70;99.90;;;;;;5137873;27;20111;-62
2022/12/04 06:41:04;;;;;;;155.48;69.25;;;4.70;99.90;;;;;;5137892;27;20557;-62
2022/12/04 06:43:30;;;;;;;153.60;68.22;;;4.50;99.90;;;;;;5137943;27;20019;-63
2022/12/04 06:46:17;;;;;;;152.90;67.38;;;4.60;99.90;;;;;;5137872;27;20027;-62
2022/12/04 06:48:44;;;;;;;159.77;72.22;;;4.60;99.90;;;;;;5137754;27;20102;-63
2022/12/04 06:51:12;;;;;;;151.10;64.93;;;4.60;99.90;;;;;;5137788;27;20031;-63
2022/12/04 06:53:39;;;;;;;161.50;68.68;;;4.60;99.90;;;;;;5137697;27;20065;-63
2022/12/04 06:56:07;;;;;;;162.80;64.68;;;4.60;99.90;;;;;;5137676;27;20110;-63
2022/12/04 06:58:34;;;;;;;154.73;66.32;;;4.60;99.90;;;;;;5137543;27;20034;-63
2022/12/04 07:01:10;;;;;;;165.23;62.15;;;4.50;99.90;;;;;;5137993;27;20094;-62
2022/12/04 07:03:37;;;;;;;181.57;64.88;;;4.50;99.90;;;;;;5138052;27;20076;-63
2022/12/04 07:06:18;;;;;;;189.95;63.97;;;4.50;99.90;;;;;;5137480;27;20593;-63
2022/12/04 07:08:46;;;;;;;207.40;69.80;;;4.50;99.90;;;;;;5137451;27;20023;-62
2022/12/04 07:11:12;;;;;;;270.80;74.35;;;4.50;99.90;;;;;;5137205;27;20050;-63
2022/12/04 07:13:38;;;;;;;218.88;72.63;;;4.40;99.90;;;;;;5137242;27;20053;-62
2022/12/04 07:16:06;;;;;;;200.00;69.15;;;4.40;99.90;;;;;;5137179;27;20047;-63
2022/12/04 07:18:33;;;;;;;213.93;69.57;;;4.50;99.90;;;;;;5137059;27;20125;-63
2022/12/04 07:20:59;;;;;;;179.10;66.90;;;4.70;99.90;;;;;;5137179;27;20023;-63
2022/12/04 07:23:25;;;;;;;183.68;66.72;;;4.60;99.90;;;;;;5137120;27;20027;-62
2022/12/04 07:25:51;;;;;;;219.70;71.70;;;4.70;99.90;;;;;;5137136;27;20479;-63
2022/12/04 07:28:16;;;;;;;264.75;76.38;;;4.80;99.90;;;;;;5137082;27;20038;-62
2022/12/04 07:30:43;;;;;;;285.45;80.95;;;4.90;99.90;;;;;;5136971;27;20027;-62
2022/12/04 07:33:09;;;;;;;269.65;77.07;;;4.90;99.90;;;;;;5136748;27;20369;-62
2022/12/04 07:35:35;;;;;;;288.95;79.45;;;4.90;99.90;;;;;;5136978;27;20027;-63
2022/12/04 07:38:01;;;;;;;277.92;78.03;;;4.90;99.90;;;;;;5136846;27;20019;-62
2022/12/04 07:40:26;;;;;;;274.50;77.22;;;4.90;99.90;;;;;;5136845;27;20075;-63
2022/12/04 07:42:52;;;;;;;195.45;68.07;;;4.80;99.90;;;;;;5136929;27;20020;-63
2022/12/04 07:45:19;;;;;;;197.13;67.85;;;5.00;99.90;;;;;;5136827;27;20060;-63
2022/12/04 07:47:45;;;;;;;178.77;66.55;;;4.90;99.90;;;;;;5136479;27;20079;-62
2022/12/04 07:50:11;;;;;;;204.93;74.00;;;4.90;99.90;;;;;;5136806;27;20512;-63
2022/12/04 07:52:38;;;;;;;182.68;69.18;;;4.90;99.90;;;;;;5136318;27;20034;-63
2022/12/04 07:55:06;;;;;;;165.00;65.55;;;4.90;99.90;;;;;;5136343;27;20396;-63
2022/12/04 07:57:32;;;;;;;169.48;68.75;;;4.90;99.90;;;;;;5136507;27;20404;-62
2022/12/04 07:59:58;;;;;;;184.20;72.97;;;5.00;99.90;;;;;;5136281;27;20079;-63
2022/12/04 08:02:24;;;;;;;138.32;60.70;;;5.20;99.90;;;;;;5136507;27;20034;-63
2022/12/04 08:04:50;;;;;;;139.98;59.40;;;5.10;99.90;;;;;;5136360;27;20123;-63
2022/12/04 08:07:17;;;;;;;123.60;56.72;;;5.20;99.90;;;;;;5136289;27;20019;-63
2022/12/04 08:09:43;;;;;;;121.55;60.65;;;5.20;99.90;;;;;;5136150;27;20029;-63
2022/12/04 08:12:09;;;;;;;117.13;57.95;;;5.30;99.90;;;;;;5136207;27;20027;-63
2022/12/04 08:14:35;;;;;;;114.50;57.13;;;5.30;99.90;;;;;;5136071;27;20046;-62
2022/12/04 08:17:01;;;;;;;104.43;53.40;;;5.30;99.90;;;;;;5135881;27;20047;-63
2022/12/04 08:19:26;;;;;;;107.78;54.47;;;5.30;99.90;;;;;;5135996;27;20489;-63
2022/12/04 08:21:55;;;;;;;98.35;51.95;;;5.30;99.90;;;;;;5136031;27;20023;-63
2022/12/04 08:24:21;;;;;;;105.45;54.20;;;5.30;99.90;;;;;;5135881;27;20050;-63
2022/12/04 08:26:47;;;;;;;111.85;53.28;;;5.20;99.90;;;;;;5136043;27;20019;-63
2022/12/04 08:29:13;;;;;;;106.18;54.05;;;5.30;99.90;;;;;;5135854;27;20383;-63
2022/12/04 08:31:39;;;;;;;102.97;53.50;;;5.40;99.90;;;;;;5135830;27;20027;-63
2022/12/04 08:34:06;;;;;;;99.45;50.13;;;5.40;99.90;;;;;;5135919;27;20428;-62
2022/12/04 08:36:33;;;;;;;97.32;52.25;;;5.50;99.90;;;;;;5135702;27;20027;-63
2022/12/04 08:38:59;;;;;;;110.50;53.42;;;5.60;99.90;;;;;;5135625;27;20030;-63
2022/12/04 08:41:26;;;;;;;106.65;52.55;;;5.60;99.90;;;;;;5135778;27;20016;-63
2022/12/04 08:43:53;;;;;;;106.45;53.22;;;5.50;99.90;;;;;;5135578;27;20023;-62
2022/12/04 08:46:20;;;;;;;104.72;51.92;;;5.40;99.90;;;;;;5117353;28;20031;-63
2022/12/04 08:48:46;;;;;;;89.88;48.92;;;5.50;99.90;;;;;;5135640;27;20024;-63
2022/12/04 08:51:14;;;;;;;102.15;54.75;;;5.60;99.90;;;;;;5135563;27;20376;-63
2022/12/04 08:53:41;;;;;;;98.53;53.90;;;5.60;99.90;;;;;;5135537;27;20078;-62
2022/12/04 08:56:07;;;;;;;96.82;55.13;;;5.70;99.90;;;;;;5135655;27;20034;-63
2022/12/04 08:58:33;;;;;;;91.05;50.35;;;5.70;99.90;;;;;;5135277;28;20114;-63
2022/12/04 09:01:11;;;;;;;91.00;51.35;;;5.80;99.90;;;;;;5135495;28;20027;-63
2022/12/04 09:03:37;;;;;;;91.63;51.00;;;5.80;99.90;;;;;;5137488;27;20084;-63
2022/12/04 09:06:04;;;;;;;92.63;52.33;;;5.80;99.90;;;;;;5139720;27;20035;-63
2022/12/04 09:08:31;;;;;;;102.88;55.13;;;5.80;99.90;;;;;;5121375;27;20035;-63
2022/12/04 09:11:11;;;;;;;96.35;54.60;;;5.80;99.90;;;;;;5139644;27;20027;-63
2022/12/04 09:13:38;;;;;;;105.78;57.33;;;5.80;99.90;;;;;;5139742;27;20019;-63
2022/12/04 09:16:06;;;;;;;92.95;53.25;;;5.90;99.90;;;;;;5139512;27;20377;-62
2022/12/04 09:18:33;;;;;;;97.05;52.75;;;6.00;99.90;;;;;;5139429;27;20350;-63
2022/12/04 09:21:01;;;;;;;95.65;53.00;;;6.00;99.90;;;;;;5139488;27;20019;-63
2022/12/04 09:23:27;;;;;;;95.07;51.65;;;6.10;99.90;;;;;;5139324;27;20489;-63
2022/12/04 09:25:53;;;;;;;104.53;54.67;;;6.10;99.90;;;;;;5139392;27;20057;-63
2022/12/04 09:28:19;;;;;;;101.93;55.92;;;6.10;99.90;;;;;;5139415;27;20019;-63
2022/12/04 09:30:55;;;;;;;146.75;71.97;;;6.20;99.90;;;;;;5139357;27;20031;-63
2022/12/04 09:33:21;;;;;;;131.15;65.18;;;6.10;99.90;;;;;;5139115;27;20024;-63
2022/12/04 09:35:47;;;;;;;121.93;64.68;;;5.90;99.90;;;;;;5139291;27;20423;-62
2022/12/04 09:38:13;;;;;;;142.10;69.10;;;6.00;99.90;;;;;;5139323;27;20045;-63
2022/12/04 09:40:53;;;;;;;135.63;68.32;;;6.10;99.90;;;;;;5139017;27;20388;-63
2022/12/04 09:43:25;;;;;;;151.40;71.70;;;6.20;99.90;;;;;;5139113;27;20023;-63
2022/12/04 09:45:55;;;;;;;138.88;69.60;;;6.20;99.90;;;;;;5138958;27;20561;-63
2022/12/04 09:48:28;;;;;;;137.52;67.60;;;6.20;99.90;;;;;;5138942;27;20054;-63
2022/12/04 09:50:54;;;;;;;129.68;69.68;;;6.30;99.90;;;;;;5138897;27;20431;-63
2022/12/04 09:53:27;;;;;;;137.95;68.60;;;6.20;99.90;;;;;;5138931;27;20031;-63
2022/12/04 09:56:13;;;;;;;127.35;65.32;;;6.30;99.90;;;;;;5138834;27;20026;-63
2022/12/04 09:58:39;;;;;;;136.40;66.88;;;6.40;99.90;;;;;;5138708;27;20484;-63
2022/12/04 10:01:15;;;;;;;136.68;68.00;;;6.30;99.90;;;;;;5120254;27;20027;-63
2022/12/04 10:03:41;;;;;;;157.35;68.70;;;6.30;99.90;;;;;;5138580;27;20024;-63
2022/12/04 10:06:16;;;;;;;159.23;70.90;;;6.30;99.90;;;;;;5138677;27;20027;-63
2022/12/04 10:08:55;;;;;;;214.88;84.20;;;6.30;99.90;;;;;;5138481;27;20034;-64
2022/12/04 10:11:36;;;;;;;270.60;93.47;;;6.50;99.90;;;;;;5138375;27;20023;-63
2022/12/04 10:14:28;;;;;;;225.23;91.13;;;6.50;99.90;;;;;;5138031;27;20023;-62
2022/12/04 10:17:06;;;;;;;209.65;85.03;;;6.40;99.90;;;;;;5138038;27;20075;-63
2022/12/04 10:20:01;;;;;;;220.80;83.55;;;6.40;99.90;;;;;;5138298;27;20072;-63
2022/12/04 10:22:56;;;;;;;209.63;80.78;;;6.60;99.90;;;;;;5138377;27;20083;-63
2022/12/04 10:25:25;;;;;;;190.15;80.65;;;6.70;99.90;;;;;;5138374;27;20027;-63
2022/12/04 10:27:57;;;;;;;173.45;72.07;;;6.80;99.90;;;;;;5138400;27;20406;-63
2022/12/04 10:30:27;;;;;;;181.27;74.53;;;7.00;99.90;;;;;;5138055;27;20034;-63
2022/12/04 10:33:02;;;;;;;102.22;53.40;;;7.10;99.90;;;;;;5138136;27;20023;-63
2022/12/04 10:35:30;;;;;;;104.00;53.25;;;7.20;99.90;;;;;;5138038;27;20496;-63
2022/12/04 10:38:00;;;;;;;91.20;50.58;;;7.30;99.90;;;;;;5138036;27;20019;-63
2022/12/04 10:40:39;;;;;;;95.95;51.13;;;7.40;99.90;;;;;;5137923;27;20030;-63
2022/12/04 10:43:16;;;;;;;129.52;60.63;;;7.50;99.90;;;;;;5138230;27;20098;-62
2022/12/04 10:45:42;;;;;;;127.05;58.00;;;7.40;99.90;;;;;;5137832;27;20033;-63
2022/12/04 10:48:22;;;;;;;141.60;64.45;;;7.30;99.90;;;;;;5137795;27;20058;-63
2022/12/04 10:50:48;;;;;;;133.98;63.38;;;7.60;99.90;;;;;;5137783;27;20250;-63
2022/12/04 10:53:15;;;;;;;153.07;65.60;;;7.70;99.90;;;;;;5119362;27;20390;-63
2022/12/04 10:55:41;;;;;;;121.32;57.33;;;7.60;99.90;;;;;;5137660;27;20015;-63
2022/12/04 10:58:17;;;;;;;109.90;57.50;;;7.80;99.90;;;;;;5137610;27;20024;-63
2022/12/04 11:00:45;;;;;;;198.02;81.97;;;8.00;99.90;;;;;;5137237;27;20536;-63
2022/12/04 11:03:28;;;;;;;227.85;92.20;;;8.00;99.90;;;;;;5119910;27;20496;-63
2022/12/04 11:06:23;;;;;;;226.30;93.25;;;8.20;99.90;;;;;;5138201;27;20024;-64
2022/12/04 11:08:51;;;;;;;244.25;97.65;;;8.20;99.90;;;;;;5135384;27;20071;-62
2022/12/04 11:11:25;;;;;;;210.43;88.43;;;8.20;99.90;;;;;;5138233;27;20030;-63
2022/12/04 11:14:04;;;;;;;229.75;98.65;;;8.30;99.90;;;;;;5137902;27;20035;-63
2022/12/04 11:16:39;;;;;;;238.95;103.45;;;8.50;99.90;;;;;;5119299;27;20138;-63
2022/12/04 11:19:26;;;;;;;244.90;102.18;;;8.50;99.90;;;;;;5137917;27;20028;-63
2022/12/04 11:21:59;;;;;;;264.33;108.00;;;8.60;99.90;;;;;;5137235;27;20019;-64
2022/12/04 11:24:37;;;;;;;279.80;114.28;;;8.50;99.90;;;;;;5137052;27;20019;-64
2022/12/04 11:27:06;;;;;;;281.30;117.22;;;8.60;99.90;;;;;;5136137;27;20023;-63
2022/12/04 11:29:40;;;;;;;282.38;116.32;;;8.60;99.90;;;;;;5137006;27;20023;-63
2022/12/04 11:32:13;;;;;;;279.40;115.13;;;8.60;99.90;;;;;;5136838;27;20511;-64
2022/12/04 11:34:40;;;;;;;272.95;116.68;;;8.70;99.90;;;;;;5136881;27;20023;-63
2022/12/04 11:37:19;;;;;;;234.50;102.20;;;8.70;99.90;;;;;;5136951;27;20019;-64
2022/12/04 11:39:46;;;;;;;253.88;109.43;;;8.90;99.90;;;;;;5136778;27;20035;-63
2022/12/04 11:42:12;;;;;;;235.30;106.25;;;8.70;99.90;;;;;;5136617;27;20016;-64
2022/12/04 11:44:38;;;;;;;209.32;94.50;;;8.80;99.90;;;;;;5118321;27;20076;-63
2022/12/04 11:47:18;;;;;;;155.38;72.72;;;8.90;99.90;;;;;;5136659;27;20106;-63
2022/12/04 11:49:44;;;;;;;149.68;67.97;;;9.00;99.90;;;;;;5136584;27;20027;-63
2022/12/04 11:52:51;;;;;;;154.45;70.78;;;9.10;99.90;;;;;;5136503;27;20479;-64
2022/12/04 11:55:23;;;;;;;161.60;70.00;;;9.20;99.90;;;;;;5108810;27;20389;-63
2022/12/04 11:58:05;;;;;;;157.68;76.40;;;9.20;99.90;;;;;;5136511;27;20106;-64
2022/12/04 12:00:34;;;;;;;159.07;70.28;;;9.20;99.90;;;;;;5136286;27;20073;-63
2022/12/04 12:03:10;;;;;;;162.27;71.90;;;9.20;99.90;;;;;;5136308;27;20055;-63
2022/12/04 12:05:43;;;;;;;151.18;69.97;;;9.20;99.90;;;;;;5136441;27;20080;-64
2022/12/04 12:08:38;;;;;;;171.10;75.07;;;9.20;99.90;;;;;;5136169;27;20535;-63
2022/12/04 12:11:37;;;;;;;142.65;63.60;;;9.20;99.90;;;;;;5115706;28;20031;-64
2022/12/04 12:14:03;;;;;;;149.82;68.18;;;9.20;99.90;;;;;;5115649;28;20035;-64
2022/12/04 12:16:38;;;;;;;125.25;64.40;;;9.20;99.90;;;;;;5115248;28;20418;-63
2022/12/04 12:19:29;;;;;;;136.05;67.05;;;9.30;99.90;;;;;;5097339;28;20054;-63
2022/12/04 12:22:20;;;;;;;134.07;67.53;;;9.30;99.90;;;;;;5115372;28;20028;-64
2022/12/04 12:25:10;;;;;;;133.82;64.75;;;9.20;99.90;;;;;;5115361;28;20431;-64
2022/12/04 12:27:54;;;;;;;124.18;63.05;;;9.20;99.90;;;;;;5115564;28;20035;-63
2022/12/04 12:30:22;;;;;;;124.07;63.35;;;9.20;99.90;;;;;;5115319;28;20024;-63
2022/12/04 12:33:16;;;;;;;121.53;63.88;;;9.10;99.90;;;;;;5115403;28;20036;-63
2022/12/04 12:36:10;;;;;;;116.28;61.70;;;9.10;99.90;;;;;;5115403;28;20031;-63
2022/12/04 12:38:50;;;;;;;118.47;62.65;;;9.20;99.90;;;;;;5115008;28;20052;-64
2022/12/04 12:41:23;;;;;;;95.30;53.77;;;9.20;99.90;;;;;;5115340;28;20028;-63
2022/12/04 12:43:59;;;;;;;112.35;57.42;;;9.20;99.90;;;;;;5115483;28;20030;-63
2022/12/04 12:46:37;;;;;;;109.90;58.85;;;9.10;99.90;;;;;;5115080;28;20024;-64
2022/12/04 12:49:20;;;;;;;108.18;57.88;;;9.10;99.90;;;;;;5115141;28;20039;-63
2022/12/04 12:52:01;;;;;;;111.40;58.03;;;9.10;99.90;;;;;;5115095;28;20072;-64
2022/12/04 12:54:39;;;;;;;112.35;58.38;;;9.10;99.90;;;;;;5114858;28;20059;-63
2022/12/04 12:57:17;;;;;;;104.78;57.22;;;9.10;99.90;;;;;;5115038;28;20381;-64
2022/12/04 12:59:51;;;;;;;111.55;59.70;;;9.00;99.90;;;;;;5114917;28;20023;-63